(°C)
(°C)
-4°
-4°
-4°
-4°
-3°
-2°
-1°
S
S
S
SSO
SSO
SSO
SSO
(km/h)
27-47
28-47
28-48
28-49
27-46
25-44
25-42
(mm)
1
1
1
1
0
0
0
(%)
98
98
90
91
56
48
28

Élévation du soleil

/ 5.1°
sun-icon
UV 0
07:15
17:33
Gibbeuse décroissante (190°)
17:58
07:47

METAR pour 53.5°N 50.15°E (UWWW)

Heure Conditions Température/
Point de rosée
Vent Visibilité Météo Nuages Pression Changement Brut
MVFR 3°C / 1°C 220º 21kt >10km Light Rain 1.00mm precipitation Vertical Visibility of 0ft. 1006 No Significant change. Runway 15: Wet or puddles, 51-100% contamination with 1mm, friction coefficient 0.50. UWWW 211230Z 22011MPS 9999 -RA BKN010 03/01 Q1006 R15/290150 NOSIG RMK QFE743/0990
MVFR 3°C / 1°C 220º 23kt >10km Light Rain 1.00mm precipitation Vertical Visibility of 0ft. 1006 No Significant change. Runway 15: Wet or puddles, 51-100% contamination with 1mm, friction coefficient 0.50. UWWW 211200Z 22012MPS 9999 -RA BKN010 03/01 Q1006 R15/290150 NOSIG RMK QFE743/0991
MVFR 3°C / 1°C 220º 21kt >10km Light Rain 1.00mm precipitation Vertical Visibility of 0ft. 1007 No Significant change. Runway 15: Wet or puddles, 51-100% contamination with 1mm, friction coefficient 0.50. UWWW 211130Z 22011MPS 9999 -RA BKN010 03/01 Q1007 R15/290150 NOSIG RMK QFE744/0992
IFR 3°C / 0°C 210º 23kt Gust 33kt >10km Light Rain 1.00mm precipitation Vertical Visibility of 0ft. 1007 No Significant change. Runway 15: Wet or puddles, 51-100% contamination with 1mm, friction coefficient 0.50. UWWW 211100Z 21012G17MPS 9999 -RA BKN008 03/00 Q1007 R15/290150 NOSIG RMK QFE744/0992
IFR 3°C / 0°C 220º 21kt >10km Light Rain 1.00mm precipitation Vertical Visibility of 0ft. 1008 Temporary: Visibility 1000. Rain Snow . RMK QFE745/0993 . Runway 15: Wet or puddles, 51-100% contamination with 1mm, friction coefficient 0.50. UWWW 211030Z 22011MPS 9999 -RA OVC009 03/00 Q1008 R15/290150 TEMPO 1000 RASN RMK QFE745/0993
IFR 2°C / 0°C 210º 19kt >10km Light Rain 1.00mm precipitation Vertical Visibility of 0ft. 1009 Temporary: Visibility 1000. Rain Snow . RMK QFE745/0993 . Runway 15: Wet or puddles, 51-100% contamination with 1mm, friction coefficient 0.50. UWWW 211000Z 21010MPS 9999 -RA OVC008 02/00 Q1009 R15/290150 TEMPO 1000 RASN RMK QFE745/0993
IFR 2°C / 0°C 210º 19kt Gust 29kt 9000m Light Rain 1.00mm precipitation Vertical Visibility of 0ft. 1009 Temporary: Visibility 1000. Rain Snow . RMK QFE745/0994 . Runway 15: Wet or puddles, 51-100% contamination with 1mm, friction coefficient 0.50. UWWW 210930Z 21010G15MPS 9000 -RA OVC007 02/M00 Q1009 R15/290150 TEMPO 1000 RASN RMK QFE745/0994
IFR 2°C / 0°C 210º 17kt >10km Light Rain 1.00mm precipitation Vertical Visibility of 0ft. 1010 Temporary: 20016MPS Visibility 1500. Rain Snow . Broken Clouds 500ft. RMK QFE746/0995 . Runway 15: Wet or puddles, 51-100% contamination with 1mm, friction coefficient 0.50. UWWW 210900Z 21009MPS 9999 -RA OVC007 02/M00 Q1010 R15/290150 TEMPO 20016MPS 1500 RASN BKN005 RMK QFE746/0995
IFR 2°C / 0°C 200º 19kt >10km Light Rain 1.00mm precipitation Vertical Visibility of 0ft. 1011 Temporary: 20016MPS Visibility 1500. Rain Snow . Broken Clouds 500ft. RMK QFE747/0996 . Runway 15: Damp, 51-100% contamination with <1mm, friction coefficient 0.55. UWWW 210830Z 20010MPS 9999 -RA BKN007 02/M00 Q1011 R15/190055 TEMPO 20016MPS 1500 RASN BKN005 RMK QFE747/0996
MVFR 2°C / 0°C 200º 17kt >10km Light Rain 1.00mm precipitation Vertical Visibility of 0ft. 1011 No Significant change. Runway 15: Damp, 51-100% contamination with <1mm, friction coefficient 0.55. UWWW 210800Z 20009MPS 9999 -RA BKN011 02/M00 Q1011 R15/190055 NOSIG RMK QFE747/0996
MVFR 3°C / -1°C 210º 16kt >10km Light Rain 1.00mm precipitation Vertical Visibility of 0ft. 1012 No Significant change. Runway 15: Damp, 51-100% contamination with <1mm, friction coefficient 0.55. UWWW 210730Z 21008MPS 9999 -RA BKN012 03/M01 Q1012 R15/190055 NOSIG RMK QFE748/0997
MVFR 3°C / -1°C 210º 14kt >10km - Broken Clouds 1600ft 1013 No Significant change. Runway 15: Damp, 51-100% contamination with <1mm, friction coefficient 0.55. UWWW 210700Z 21007MPS 9999 BKN016 03/M01 Q1013 R15/190055 NOSIG RMK QFE748/0998
MVFR 3°C / -2°C 210º 14kt >10km - Broken Clouds 2100ft 1014 No Significant change. Runway 15: Damp, 51-100% contamination with <1mm, friction coefficient 0.55. UWWW 210630Z 21007MPS 9999 BKN021 03/M02 Q1014 R15/190055 NOSIG RMK QFE749/0999
VFR 3°C / -2°C 210º 14kt >10km - Scattered Clouds 3300ft 1014 No Significant change. Runway 15: Damp, 51-100% contamination with <1mm, friction coefficient 0.55. UWWW 210600Z 21007MPS 9999 SCT033 03/M02 Q1014 R15/190055 NOSIG RMK QFE749/0999
VFR 3°C / -2°C 210º 8kt >10km - Scattered Clouds 3300ft 1015 No Significant change. Runway 15: Damp, 51-100% contamination with <1mm, friction coefficient 0.55. UWWW 210530Z 21004MPS 9999 SCT033 03/M02 Q1015 R15/190055 NOSIG RMK QFE750/1000
VFR 2°C / -2°C 200º 8kt >10km - Scattered Clouds 3300ft 1015 No Significant change. Runway 15: Damp, 51-100% contamination with <1mm, friction coefficient 0.55. UWWW 210500Z 20004MPS 9999 SCT033 02/M02 Q1015 R15/190055 NOSIG RMK QFE750/1000
VFR 2°C / -2°C 200º 6kt >10km - Scattered Clouds 3300ft 1016 No Significant change. Runway 15: Damp, 51-100% contamination with <1mm, friction coefficient 0.55. UWWW 210430Z 20003MPS 9999 SCT033 02/M02 Q1016 R15/190055 NOSIG RMK QFE750/1000
VFR 1°C / -3°C 210º 8kt >10km - Scattered Clouds 3300ft 1016 No Significant change. Runway 15: Damp, 51-100% contamination with <1mm, friction coefficient 0.55. UWWW 210400Z 21004MPS 9999 SCT033 01/M03 Q1016 R15/190055 NOSIG RMK QFE750/1001
VFR 0°C / -4°C 230º 8kt >10km - Scattered Clouds 3300ft 1016 No Significant change. Runway 15: Damp, 51-100% contamination with <1mm, friction coefficient 0.55. UWWW 210330Z 23004MPS 9999 SCT033 00/M04 Q1016 R15/190055 NOSIG RMK QFE751/1001
VFR 0°C / -4°C 220º 8kt >10km - Scattered Clouds 3300ft 1017 No Significant change. Runway 15: Damp, 51-100% contamination with <1mm, friction coefficient 0.55. UWWW 210300Z 22004MPS 9999 SCT033 00/M04 Q1017 R15/190055 NOSIG RMK QFE751/1001
VFR 0°C / -3°C 210º 6kt >10km - Scattered Clouds 3300ft 1017 No Significant change. Runway 15: Damp, 51-100% contamination with <1mm, friction coefficient 0.55. UWWW 210230Z 21003MPS 9999 SCT033 00/M03 Q1017 R15/190055 NOSIG RMK QFE751/1002
VFR 0°C / -3°C 190º 6kt >10km - Scattered Clouds 3300ft 1017 No Significant change. Runway 15: Damp, 51-100% contamination with <1mm, friction coefficient 0.55. UWWW 210200Z 19003MPS 9999 SCT033 00/M03 Q1017 R15/190055 NOSIG RMK QFE751/1002
VFR 0°C / -3°C 220º 6kt >10km - Few Clouds 3300ft 1017 No Significant change. Runway 15: Damp, 51-100% contamination with <1mm, friction coefficient 0.55. UWWW 210130Z 22003MPS 9999 FEW033 M00/M03 Q1017 R15/190055 NOSIG RMK QFE751/1002
VFR -1°C / -3°C 230º 6kt >10km - Few Clouds 3300ft 1017 No Significant change. Runway 15: Damp, 51-100% contamination with <1mm, friction coefficient 0.55. UWWW 210100Z 23003MPS 9999 FEW033 M01/M03 Q1017 R15/190055 NOSIG RMK QFE751/1002

MVFR

3°C / 1°C

[Plus]
Vent 220º 21kt
Visibilité >10km
Météo Light Rain 1.00mm precipitation
Nuages Vertical Visibility of 0ft.
Pression 1006
Changement No Significant change. Runway 15: Wet or puddles, 51-100% contamination with 1mm, friction coefficient 0.50.
Brut UWWW 211230Z 22011MPS 9999 -RA BKN010 03/01 Q1006 R15/290150 NOSIG RMK QFE743/0990

MVFR

3°C / 1°C

[Plus]
Vent 220º 23kt
Visibilité >10km
Météo Light Rain 1.00mm precipitation
Nuages Vertical Visibility of 0ft.
Pression 1006
Changement No Significant change. Runway 15: Wet or puddles, 51-100% contamination with 1mm, friction coefficient 0.50.
Brut UWWW 211200Z 22012MPS 9999 -RA BKN010 03/01 Q1006 R15/290150 NOSIG RMK QFE743/0991

MVFR

3°C / 1°C

[Plus]
Vent 220º 21kt
Visibilité >10km
Météo Light Rain 1.00mm precipitation
Nuages Vertical Visibility of 0ft.
Pression 1007
Changement No Significant change. Runway 15: Wet or puddles, 51-100% contamination with 1mm, friction coefficient 0.50.
Brut UWWW 211130Z 22011MPS 9999 -RA BKN010 03/01 Q1007 R15/290150 NOSIG RMK QFE744/0992

IFR

3°C / 0°C

[Plus]
Vent 210º 23kt Gust 33kt
Visibilité >10km
Météo Light Rain 1.00mm precipitation
Nuages Vertical Visibility of 0ft.
Pression 1007
Changement No Significant change. Runway 15: Wet or puddles, 51-100% contamination with 1mm, friction coefficient 0.50.
Brut UWWW 211100Z 21012G17MPS 9999 -RA BKN008 03/00 Q1007 R15/290150 NOSIG RMK QFE744/0992

IFR

3°C / 0°C

[Plus]
Vent 220º 21kt
Visibilité >10km
Météo Light Rain 1.00mm precipitation
Nuages Vertical Visibility of 0ft.
Pression 1008
Changement Temporary: Visibility 1000. Rain Snow . RMK QFE745/0993 . Runway 15: Wet or puddles, 51-100% contamination with 1mm, friction coefficient 0.50.
Brut UWWW 211030Z 22011MPS 9999 -RA OVC009 03/00 Q1008 R15/290150 TEMPO 1000 RASN RMK QFE745/0993

IFR

2°C / 0°C

[Plus]
Vent 210º 19kt
Visibilité >10km
Météo Light Rain 1.00mm precipitation
Nuages Vertical Visibility of 0ft.
Pression 1009
Changement Temporary: Visibility 1000. Rain Snow . RMK QFE745/0993 . Runway 15: Wet or puddles, 51-100% contamination with 1mm, friction coefficient 0.50.
Brut UWWW 211000Z 21010MPS 9999 -RA OVC008 02/00 Q1009 R15/290150 TEMPO 1000 RASN RMK QFE745/0993

IFR

2°C / 0°C

[Plus]
Vent 210º 19kt Gust 29kt
Visibilité 9000m
Météo Light Rain 1.00mm precipitation
Nuages Vertical Visibility of 0ft.
Pression 1009
Changement Temporary: Visibility 1000. Rain Snow . RMK QFE745/0994 . Runway 15: Wet or puddles, 51-100% contamination with 1mm, friction coefficient 0.50.
Brut UWWW 210930Z 21010G15MPS 9000 -RA OVC007 02/M00 Q1009 R15/290150 TEMPO 1000 RASN RMK QFE745/0994

IFR

2°C / 0°C

[Plus]
Vent 210º 17kt
Visibilité >10km
Météo Light Rain 1.00mm precipitation
Nuages Vertical Visibility of 0ft.
Pression 1010
Changement Temporary: 20016MPS Visibility 1500. Rain Snow . Broken Clouds 500ft. RMK QFE746/0995 . Runway 15: Wet or puddles, 51-100% contamination with 1mm, friction coefficient 0.50.
Brut UWWW 210900Z 21009MPS 9999 -RA OVC007 02/M00 Q1010 R15/290150 TEMPO 20016MPS 1500 RASN BKN005 RMK QFE746/0995

IFR

2°C / 0°C

[Plus]
Vent 200º 19kt
Visibilité >10km
Météo Light Rain 1.00mm precipitation
Nuages Vertical Visibility of 0ft.
Pression 1011
Changement Temporary: 20016MPS Visibility 1500. Rain Snow . Broken Clouds 500ft. RMK QFE747/0996 . Runway 15: Damp, 51-100% contamination with <1mm, friction coefficient 0.55.
Brut UWWW 210830Z 20010MPS 9999 -RA BKN007 02/M00 Q1011 R15/190055 TEMPO 20016MPS 1500 RASN BKN005 RMK QFE747/0996

MVFR

2°C / 0°C

[Plus]
Vent 200º 17kt
Visibilité >10km
Météo Light Rain 1.00mm precipitation
Nuages Vertical Visibility of 0ft.
Pression 1011
Changement No Significant change. Runway 15: Damp, 51-100% contamination with <1mm, friction coefficient 0.55.
Brut UWWW 210800Z 20009MPS 9999 -RA BKN011 02/M00 Q1011 R15/190055 NOSIG RMK QFE747/0996

MVFR

3°C / -1°C

[Plus]
Vent 210º 16kt
Visibilité >10km
Météo Light Rain 1.00mm precipitation
Nuages Vertical Visibility of 0ft.
Pression 1012
Changement No Significant change. Runway 15: Damp, 51-100% contamination with <1mm, friction coefficient 0.55.
Brut UWWW 210730Z 21008MPS 9999 -RA BKN012 03/M01 Q1012 R15/190055 NOSIG RMK QFE748/0997

MVFR

3°C / -1°C

[Plus]
Vent 210º 14kt
Visibilité >10km
Météo -
Nuages Broken Clouds 1600ft
Pression 1013
Changement No Significant change. Runway 15: Damp, 51-100% contamination with <1mm, friction coefficient 0.55.
Brut UWWW 210700Z 21007MPS 9999 BKN016 03/M01 Q1013 R15/190055 NOSIG RMK QFE748/0998

MVFR

3°C / -2°C

[Plus]
Vent 210º 14kt
Visibilité >10km
Météo -
Nuages Broken Clouds 2100ft
Pression 1014
Changement No Significant change. Runway 15: Damp, 51-100% contamination with <1mm, friction coefficient 0.55.
Brut UWWW 210630Z 21007MPS 9999 BKN021 03/M02 Q1014 R15/190055 NOSIG RMK QFE749/0999

VFR

3°C / -2°C

[Plus]
Vent 210º 14kt
Visibilité >10km
Météo -
Nuages Scattered Clouds 3300ft
Pression 1014
Changement No Significant change. Runway 15: Damp, 51-100% contamination with <1mm, friction coefficient 0.55.
Brut UWWW 210600Z 21007MPS 9999 SCT033 03/M02 Q1014 R15/190055 NOSIG RMK QFE749/0999

VFR

3°C / -2°C

[Plus]
Vent 210º 8kt
Visibilité >10km
Météo -
Nuages Scattered Clouds 3300ft
Pression 1015
Changement No Significant change. Runway 15: Damp, 51-100% contamination with <1mm, friction coefficient 0.55.
Brut UWWW 210530Z 21004MPS 9999 SCT033 03/M02 Q1015 R15/190055 NOSIG RMK QFE750/1000

VFR

2°C / -2°C

[Plus]
Vent 200º 8kt
Visibilité >10km
Météo -
Nuages Scattered Clouds 3300ft
Pression 1015
Changement No Significant change. Runway 15: Damp, 51-100% contamination with <1mm, friction coefficient 0.55.
Brut UWWW 210500Z 20004MPS 9999 SCT033 02/M02 Q1015 R15/190055 NOSIG RMK QFE750/1000

VFR

2°C / -2°C

[Plus]
Vent 200º 6kt
Visibilité >10km
Météo -
Nuages Scattered Clouds 3300ft
Pression 1016
Changement No Significant change. Runway 15: Damp, 51-100% contamination with <1mm, friction coefficient 0.55.
Brut UWWW 210430Z 20003MPS 9999 SCT033 02/M02 Q1016 R15/190055 NOSIG RMK QFE750/1000

VFR

1°C / -3°C

[Plus]
Vent 210º 8kt
Visibilité >10km
Météo -
Nuages Scattered Clouds 3300ft
Pression 1016
Changement No Significant change. Runway 15: Damp, 51-100% contamination with <1mm, friction coefficient 0.55.
Brut UWWW 210400Z 21004MPS 9999 SCT033 01/M03 Q1016 R15/190055 NOSIG RMK QFE750/1001

VFR

0°C / -4°C

[Plus]
Vent 230º 8kt
Visibilité >10km
Météo -
Nuages Scattered Clouds 3300ft
Pression 1016
Changement No Significant change. Runway 15: Damp, 51-100% contamination with <1mm, friction coefficient 0.55.
Brut UWWW 210330Z 23004MPS 9999 SCT033 00/M04 Q1016 R15/190055 NOSIG RMK QFE751/1001

VFR

0°C / -4°C

[Plus]
Vent 220º 8kt
Visibilité >10km
Météo -
Nuages Scattered Clouds 3300ft
Pression 1017
Changement No Significant change. Runway 15: Damp, 51-100% contamination with <1mm, friction coefficient 0.55.
Brut UWWW 210300Z 22004MPS 9999 SCT033 00/M04 Q1017 R15/190055 NOSIG RMK QFE751/1001

VFR

0°C / -3°C

[Plus]
Vent 210º 6kt
Visibilité >10km
Météo -
Nuages Scattered Clouds 3300ft
Pression 1017
Changement No Significant change. Runway 15: Damp, 51-100% contamination with <1mm, friction coefficient 0.55.
Brut UWWW 210230Z 21003MPS 9999 SCT033 00/M03 Q1017 R15/190055 NOSIG RMK QFE751/1002

VFR

0°C / -3°C

[Plus]
Vent 190º 6kt
Visibilité >10km
Météo -
Nuages Scattered Clouds 3300ft
Pression 1017
Changement No Significant change. Runway 15: Damp, 51-100% contamination with <1mm, friction coefficient 0.55.
Brut UWWW 210200Z 19003MPS 9999 SCT033 00/M03 Q1017 R15/190055 NOSIG RMK QFE751/1002

VFR

0°C / -3°C

[Plus]
Vent 220º 6kt
Visibilité >10km
Météo -
Nuages Few Clouds 3300ft
Pression 1017
Changement No Significant change. Runway 15: Damp, 51-100% contamination with <1mm, friction coefficient 0.55.
Brut UWWW 210130Z 22003MPS 9999 FEW033 M00/M03 Q1017 R15/190055 NOSIG RMK QFE751/1002

VFR

-1°C / -3°C

[Plus]
Vent 230º 6kt
Visibilité >10km
Météo -
Nuages Few Clouds 3300ft
Pression 1017
Changement No Significant change. Runway 15: Damp, 51-100% contamination with <1mm, friction coefficient 0.55.
Brut UWWW 210100Z 23003MPS 9999 FEW033 M01/M03 Q1017 R15/190055 NOSIG RMK QFE751/1002

TAF pour 53.5°N 50.15°E (UWWW)

From till


Maximum Temperature 11ºC on . Minimum Temperature 3ºC on .
From till Wind 250º 16kt. Gust 25kt. Visibility 6000m. Light Rain . Broken Clouds 1100ft.
Temporarly from till Wind 210º 27kt. Gust 37kt. Visibility 997.791m. Showers Rain . Broken Clouds 400ft. Broken Clouds 1600ft.
From till Wind 230º 17kt. Gust 31kt. Visibility 6000m. Light Rain . Broken Clouds 1600ft.

Brut: TAF UWWW 211054Z 2112/2212 25008G13MPS 6000 -RA BKN011 TX11/2211Z TN03/2112Z TEMPO 2112/2205 21014G19MPS 1000 SHRA BKN004 BKN016CB FM220500 23009G16MPS 6000 -RA BKN016

Les images satellites et les pluies actuelles pour 53.5°N 50.15°E

Le marqueur est placé sur 53.5°N 50.15°E. [Plus]

L'image satellite en temps réel combine la lumière visible pendant la journée et le rayonnement infrarouge pendant la nuit. La nuit, l'image n'est pas sombre car le rayonnement infrarouge permet de détecter les différences de température. Malheureusement, les nuages bas et le brouillard sont difficiles à distinguer des températures au sol et peuvent donc être presque invisibles pendant la nuit. Les images des satellites Météosat pour l'Europe sont mises à jour en temps réel toutes les 5 minutes. Les images GOES-16/GOES-17 (Amérique du Nord et du Sud) et Himawari (Asie) sont mises à jour toutes les 10 minutes.

Copyright 2021 EUMETSAT / meteoblue. / Copyright 2021 meteoblue

Radar et prévision de précipitation à court terme pour 53.5°N 50.15°E

Bruine
Légère
Modéré
Fort
Très fort
Grêle

Le marqueur est placé sur 53.5°N 50.15°E. Cette animation montre le Radar des précipitations pour les dernières heures, ainsi qu'une 1h prévision. La bruine ou les légères chutes de neiges peuvent ne pas être détectées par le radar. L'intensité des précipitations est visible avec un code couleur allant du bleu clair au violet foncé et orange.